LICD

Lampedusa Airport

Airport
ICAO code
LICD
IATA Code
LMP
Summary
ICAO Region
EUR
ICAO Territory
Location

Lampedusa, Sicily

Serving
Lampedusa
Elevation
69 ft
Coordinates
35° 29' 55" N , 12° 37' 20" E
KCC
Metar
LICD 140420Z AUTO 36016KT 9999 NCD 21/17 Q1017

Lampedusa Airport is an airport on the Italian island of Lampedusa.

Climatology

Warm semi-arid climate (Köppen climate classification BSh)

Runways

Designator Length Width Surface Rops
8/26 1800 45 ASP Yes/Yes

Airport map

Aerial View

SKYbrary Partners:

Safety knowledge contributed by: